sensor_id;sensor_type;location;lat;lon;timestamp;temperature;humidity
5429;DHT22;2737;52.386;9.980;2022-11-23T00:02:22;4.60;99.90
5429;DHT22;2737;52.386;9.980;2022-11-23T00:04:49;4.70;99.90
5429;DHT22;2737;52.386;9.980;2022-11-23T00:07:16;4.70;99.90
5429;DHT22;2737;52.386;9.980;2022-11-23T00:09:43;4.70;99.90
5429;DHT22;2737;52.386;9.980;2022-11-23T00:12:10;4.80;99.90
5429;DHT22;2737;52.386;9.980;2022-11-23T00:14:37;4.80;99.90
5429;DHT22;2737;52.386;9.980;2022-11-23T00:17:04;4.80;99.90
5429;DHT22;2737;52.386;9.980;2022-11-23T00:19:33;4.80;99.90
5429;DHT22;2737;52.386;9.980;2022-11-23T00:22:00;4.80;99.90
5429;DHT22;2737;52.386;9.980;2022-11-23T00:24:27;4.80;99.90
5429;DHT22;2737;52.386;9.980;2022-11-23T00:26:54;4.80;99.90
5429;DHT22;2737;52.386;9.980;2022-11-23T00:29:21;4.80;99.90
5429;DHT22;2737;52.386;9.980;2022-11-23T00:31:48;4.70;99.90
5429;DHT22;2737;52.386;9.980;2022-11-23T00:34:15;4.70;99.90
5429;DHT22;2737;52.386;9.980;2022-11-23T00:36:43;4.70;99.90
5429;DHT22;2737;52.386;9.980;2022-11-23T00:39:10;4.60;99.90
5429;DHT22;2737;52.386;9.980;2022-11-23T00:41:37;4.60;99.90
5429;DHT22;2737;52.386;9.980;2022-11-23T00:44:04;4.50;99.90
5429;DHT22;2737;52.386;9.980;2022-11-23T00:46:32;4.50;99.90
5429;DHT22;2737;52.386;9.980;2022-11-23T00:48:59;4.50;99.90
5429;DHT22;2737;52.386;9.980;2022-11-23T00:51:28;4.50;99.90
5429;DHT22;2737;52.386;9.980;2022-11-23T00:53:58;4.50;99.90
5429;DHT22;2737;52.386;9.980;2022-11-23T00:56:25;4.50;99.90
5429;DHT22;2737;52.386;9.980;2022-11-23T00:58:54;4.50;99.90
5429;DHT22;2737;52.386;9.980;2022-11-23T01:01:22;4.50;99.90
5429;DHT22;2737;52.386;9.980;2022-11-23T01:03:52;4.50;99.90
5429;DHT22;2737;52.386;9.980;2022-11-23T01:06:21;4.40;99.90
5429;DHT22;2737;52.386;9.980;2022-11-23T01:08:49;4.40;99.90
5429;DHT22;2737;52.386;9.980;2022-11-23T01:11:19;4.40;99.90
5429;DHT22;2737;52.386;9.980;2022-11-23T01:13:46;4.40;99.90
5429;DHT22;2737;52.386;9.980;2022-11-23T01:16:15;4.40;99.90
5429;DHT22;2737;52.386;9.980;2022-11-23T01:18:43;4.40;99.90
5429;DHT22;2737;52.386;9.980;2022-11-23T01:21:10;4.30;99.90
5429;DHT22;2737;52.386;9.980;2022-11-23T01:23:37;4.20;99.90
5429;DHT22;2737;52.386;9.980;2022-11-23T01:26:05;4.20;99.90
5429;DHT22;2737;52.386;9.980;2022-11-23T01:28:34;4.20;99.90
5429;DHT22;2737;52.386;9.980;2022-11-23T01:31:05;4.10;99.90
5429;DHT22;2737;52.386;9.980;2022-11-23T01:33:33;4.10;99.90
5429;DHT22;2737;52.386;9.980;2022-11-23T01:36:00;4.10;99.90
5429;DHT22;2737;52.386;9.980;2022-11-23T01:38:27;4.10;99.90
5429;DHT22;2737;52.386;9.980;2022-11-23T01:40:54;4.10;99.90
5429;DHT22;2737;52.386;9.980;2022-11-23T01:43:21;4.10;99.90
5429;DHT22;2737;52.386;9.980;2022-11-23T01:45:57;4.10;99.90
5429;DHT22;2737;52.386;9.980;2022-11-23T01:48:26;4.10;99.90
5429;DHT22;2737;52.386;9.980;2022-11-23T01:50:55;4.10;99.90
5429;DHT22;2737;52.386;9.980;2022-11-23T01:53:24;4.10;99.90
5429;DHT22;2737;52.386;9.980;2022-11-23T01:55:54;4.10;99.90
5429;DHT22;2737;52.386;9.980;2022-11-23T01:58:24;4.10;99.90
5429;DHT22;2737;52.386;9.980;2022-11-23T02:00:53;4.10;99.90
5429;DHT22;2737;52.386;9.980;2022-11-23T02:03:22;4.10;99.90
5429;DHT22;2737;52.386;9.980;2022-11-23T02:05:50;4.10;99.90
5429;DHT22;2737;52.386;9.980;2022-11-23T02:08:24;4.10;99.90
5429;DHT22;2737;52.386;9.980;2022-11-23T02:10:52;4.20;99.90
5429;DHT22;2737;52.386;9.980;2022-11-23T02:13:19;4.10;99.90
5429;DHT22;2737;52.386;9.980;2022-11-23T02:15:47;4.10;99.90
5429;DHT22;2737;52.386;9.980;2022-11-23T02:18:23;4.20;99.90
5429;DHT22;2737;52.386;9.980;2022-11-23T02:20:53;4.10;99.90
5429;DHT22;2737;52.386;9.980;2022-11-23T02:23:30;4.10;99.90
5429;DHT22;2737;52.386;9.980;2022-11-23T02:26:03;4.10;99.90
5429;DHT22;2737;52.386;9.980;2022-11-23T02:28:34;4.10;99.90
5429;DHT22;2737;52.386;9.980;2022-11-23T02:31:02;4.10;99.90
5429;DHT22;2737;52.386;9.980;2022-11-23T02:33:29;4.10;99.90
5429;DHT22;2737;52.386;9.980;2022-11-23T02:35:58;4.10;99.90
5429;DHT22;2737;52.386;9.980;2022-11-23T02:38:29;4.10;99.90
5429;DHT22;2737;52.386;9.980;2022-11-23T02:40:57;4.10;99.90
5429;DHT22;2737;52.386;9.980;2022-11-23T02:43:25;4.10;99.90
5429;DHT22;2737;52.386;9.980;2022-11-23T02:45:55;4.10;99.90
5429;DHT22;2737;52.386;9.980;2022-11-23T02:48:23;4.20;99.90
5429;DHT22;2737;52.386;9.980;2022-11-23T02:50:51;4.20;99.90
5429;DHT22;2737;52.386;9.980;2022-11-23T02:53:18;4.20;99.90
5429;DHT22;2737;52.386;9.980;2022-11-23T02:55:45;4.30;99.90
5429;DHT22;2737;52.386;9.980;2022-11-23T02:58:12;4.30;99.90
5429;DHT22;2737;52.386;9.980;2022-11-23T03:00:40;4.30;99.90
5429;DHT22;2737;52.386;9.980;2022-11-23T03:03:08;4.40;99.90
5429;DHT22;2737;52.386;9.980;2022-11-23T03:05:35;4.40;99.90
5429;DHT22;2737;52.386;9.980;2022-11-23T03:08:02;4.50;99.90
5429;DHT22;2737;52.386;9.980;2022-11-23T03:10:29;4.50;99.90
5429;DHT22;2737;52.386;9.980;2022-11-23T03:12:56;4.50;99.90
5429;DHT22;2737;52.386;9.980;2022-11-23T03:15:23;4.50;99.90
5429;DHT22;2737;52.386;9.980;2022-11-23T03:17:52;4.60;99.90
5429;DHT22;2737;52.386;9.980;2022-11-23T03:20:19;4.60;99.90
5429;DHT22;2737;52.386;9.980;2022-11-23T03:22:46;4.60;99.90
5429;DHT22;2737;52.386;9.980;2022-11-23T03:25:13;4.60;99.90
5429;DHT22;2737;52.386;9.980;2022-11-23T03:27:40;4.70;99.90
5429;DHT22;2737;52.386;9.980;2022-11-23T03:30:08;4.70;99.90
5429;DHT22;2737;52.386;9.980;2022-11-23T03:32:35;4.70;99.90
5429;DHT22;2737;52.386;9.980;2022-11-23T03:35:04;4.80;99.90
5429;DHT22;2737;52.386;9.980;2022-11-23T03:37:32;4.80;99.90
5429;DHT22;2737;52.386;9.980;2022-11-23T03:39:59;4.90;99.90
5429;DHT22;2737;52.386;9.980;2022-11-23T03:42:26;4.90;99.90
5429;DHT22;2737;52.386;9.980;2022-11-23T03:44:53;5.00;99.90
5429;DHT22;2737;52.386;9.980;2022-11-23T03:47:20;5.10;99.90
5429;DHT22;2737;52.386;9.980;2022-11-23T03:49:47;5.10;99.90
5429;DHT22;2737;52.386;9.980;2022-11-23T03:52:16;5.20;99.90
5429;DHT22;2737;52.386;9.980;2022-11-23T03:54:43;5.30;99.90
5429;DHT22;2737;52.386;9.980;2022-11-23T03:57:11;5.30;99.90
5429;DHT22;2737;52.386;9.980;2022-11-23T03:59:38;5.30;99.90
5429;DHT22;2737;52.386;9.980;2022-11-23T04:02:05;5.40;99.90
5429;DHT22;2737;52.386;9.980;2022-11-23T04:04:33;5.40;99.90
5429;DHT22;2737;52.386;9.980;2022-11-23T04:07:01;5.40;99.90
5429;DHT22;2737;52.386;9.980;2022-11-23T04:09:29;5.40;99.90
5429;DHT22;2737;52.386;9.980;2022-11-23T04:11:56;5.50;99.90
5429;DHT22;2737;52.386;9.980;2022-11-23T04:14:23;5.50;99.90
5429;DHT22;2737;52.386;9.980;2022-11-23T04:16:50;5.50;99.90
5429;DHT22;2737;52.386;9.980;2022-11-23T04:19:17;5.50;99.90
5429;DHT22;2737;52.386;9.980;2022-11-23T04:21:44;5.50;99.90
5429;DHT22;2737;52.386;9.980;2022-11-23T04:24:11;5.50;99.90
5429;DHT22;2737;52.386;9.980;2022-11-23T04:26:40;5.50;99.90
5429;DHT22;2737;52.386;9.980;2022-11-23T04:29:07;5.50;99.90
5429;DHT22;2737;52.386;9.980;2022-11-23T04:31:34;5.40;99.90
5429;DHT22;2737;52.386;9.980;2022-11-23T04:34:01;5.50;99.90
5429;DHT22;2737;52.386;9.980;2022-11-23T04:36:28;5.40;99.90
5429;DHT22;2737;52.386;9.980;2022-11-23T04:38:55;5.40;99.90
5429;DHT22;2737;52.386;9.980;2022-11-23T04:41:23;5.40;99.90
5429;DHT22;2737;52.386;9.980;2022-11-23T04:43:52;5.40;99.90
5429;DHT22;2737;52.386;9.980;2022-11-23T04:46:19;5.30;99.90
5429;DHT22;2737;52.386;9.980;2022-11-23T04:48:46;5.30;99.90
5429;DHT22;2737;52.386;9.980;2022-11-23T04:51:13;5.30;99.90
5429;DHT22;2737;52.386;9.980;2022-11-23T04:53:41;5.30;99.90
5429;DHT22;2737;52.386;9.980;2022-11-23T04:56:08;5.30;99.90
5429;DHT22;2737;52.386;9.980;2022-11-23T04:58:35;5.30;99.90
5429;DHT22;2737;52.386;9.980;2022-11-23T05:01:04;5.20;99.90
5429;DHT22;2737;52.386;9.980;2022-11-23T05:03:31;5.20;99.90
5429;DHT22;2737;52.386;9.980;2022-11-23T05:05:59;5.20;99.90
5429;DHT22;2737;52.386;9.980;2022-11-23T05:08:26;5.10;99.90
5429;DHT22;2737;52.386;9.980;2022-11-23T05:10:53;5.10;99.90
5429;DHT22;2737;52.386;9.980;2022-11-23T05:13:21;5.10;99.90
5429;DHT22;2737;52.386;9.980;2022-11-23T05:15:48;5.10;99.90
5429;DHT22;2737;52.386;9.980;2022-11-23T05:18:16;5.10;99.90
5429;DHT22;2737;52.386;9.980;2022-11-23T05:20:45;5.00;99.90
5429;DHT22;2737;52.386;9.980;2022-11-23T05:23:12;5.00;99.90
5429;DHT22;2737;52.386;9.980;2022-11-23T05:25:39;4.90;99.90
5429;DHT22;2737;52.386;9.980;2022-11-23T05:28:07;4.90;99.90
5429;DHT22;2737;52.386;9.980;2022-11-23T05:30:35;4.90;99.90
5429;DHT22;2737;52.386;9.980;2022-11-23T05:33:02;4.90;99.90
5429;DHT22;2737;52.386;9.980;2022-11-23T05:35:31;4.90;99.90
5429;DHT22;2737;52.386;9.980;2022-11-23T05:37:59;4.80;99.90
5429;DHT22;2737;52.386;9.980;2022-11-23T05:40:26;4.80;99.90
5429;DHT22;2737;52.386;9.980;2022-11-23T05:42:54;4.80;99.90
5429;DHT22;2737;52.386;9.980;2022-11-23T05:45:21;4.80;99.90
5429;DHT22;2737;52.386;9.980;2022-11-23T05:47:49;4.80;99.90
5429;DHT22;2737;52.386;9.980;2022-11-23T05:50:16;4.80;99.90
5429;DHT22;2737;52.386;9.980;2022-11-23T05:52:45;4.80;99.90
5429;DHT22;2737;52.386;9.980;2022-11-23T05:55:12;4.70;99.90
5429;DHT22;2737;52.386;9.980;2022-11-23T05:57:40;4.70;99.90
5429;DHT22;2737;52.386;9.980;2022-11-23T06:00:08;4.70;99.90
5429;DHT22;2737;52.386;9.980;2022-11-23T06:02:36;4.70;99.90
5429;DHT22;2737;52.386;9.980;2022-11-23T06:05:04;4.70;99.90
5429;DHT22;2737;52.386;9.980;2022-11-23T06:07:31;4.70;99.90
5429;DHT22;2737;52.386;9.980;2022-11-23T06:10:00;4.70;99.90
5429;DHT22;2737;52.386;9.980;2022-11-23T06:12:28;4.70;99.90
5429;DHT22;2737;52.386;9.980;2022-11-23T06:14:55;4.70;99.90
5429;DHT22;2737;52.386;9.980;2022-11-23T06:17:22;4.70;99.90
5429;DHT22;2737;52.386;9.980;2022-11-23T06:19:49;4.70;99.90
5429;DHT22;2737;52.386;9.980;2022-11-23T06:22:16;4.70;99.90
5429;DHT22;2737;52.386;9.980;2022-11-23T06:24:43;4.60;99.90
5429;DHT22;2737;52.386;9.980;2022-11-23T06:27:12;4.60;99.90
5429;DHT22;2737;52.386;9.980;2022-11-23T06:29:41;4.60;99.90
5429;DHT22;2737;52.386;9.980;2022-11-23T06:32:09;4.60;99.90
5429;DHT22;2737;52.386;9.980;2022-11-23T06:34:36;4.50;99.90
5429;DHT22;2737;52.386;9.980;2022-11-23T06:37:03;4.50;99.90
5429;DHT22;2737;52.386;9.980;2022-11-23T06:39:30;4.50;99.90
5429;DHT22;2737;52.386;9.980;2022-11-23T06:41:57;4.50;99.90
5429;DHT22;2737;52.386;9.980;2022-11-23T06:44:25;4.50;99.90
5429;DHT22;2737;52.386;9.980;2022-11-23T06:46:52;4.50;99.90
5429;DHT22;2737;52.386;9.980;2022-11-23T06:49:19;4.60;99.90
5429;DHT22;2737;52.386;9.980;2022-11-23T06:51:46;4.60;99.90
5429;DHT22;2737;52.386;9.980;2022-11-23T06:54:13;4.70;99.90
5429;DHT22;2737;52.386;9.980;2022-11-23T06:56:40;4.70;99.90
5429;DHT22;2737;52.386;9.980;2022-11-23T06:59:08;4.70;99.90
5429;DHT22;2737;52.386;9.980;2022-11-23T07:01:36;4.70;99.90
5429;DHT22;2737;52.386;9.980;2022-11-23T07:04:03;4.70;99.90
5429;DHT22;2737;52.386;9.980;2022-11-23T07:06:30;4.70;99.90
5429;DHT22;2737;52.386;9.980;2022-11-23T07:08:57;4.70;99.90
5429;DHT22;2737;52.386;9.980;2022-11-23T07:11:24;4.80;99.90
5429;DHT22;2737;52.386;9.980;2022-11-23T07:13:51;4.70;99.90
5429;DHT22;2737;52.386;9.980;2022-11-23T07:16:18;4.70;99.90
5429;DHT22;2737;52.386;9.980;2022-11-23T07:18:47;4.70;99.90
5429;DHT22;2737;52.386;9.980;2022-11-23T07:21:14;4.60;99.90
5429;DHT22;2737;52.386;9.980;2022-11-23T07:23:41;4.60;99.90
5429;DHT22;2737;52.386;9.980;2022-11-23T07:26:08;4.60;99.90
5429;DHT22;2737;52.386;9.980;2022-11-23T07:28:35;4.60;99.90
5429;DHT22;2737;52.386;9.980;2022-11-23T07:31:02;4.60;99.90
5429;DHT22;2737;52.386;9.980;2022-11-23T07:33:29;4.50;99.90
5429;DHT22;2737;52.386;9.980;2022-11-23T07:35:59;4.50;99.90
5429;DHT22;2737;52.386;9.980;2022-11-23T07:38:26;4.60;99.90
5429;DHT22;2737;52.386;9.980;2022-11-23T07:40:53;4.50;99.90
5429;DHT22;2737;52.386;9.980;2022-11-23T07:43:20;4.50;99.90
5429;DHT22;2737;52.386;9.980;2022-11-23T07:45:47;4.50;99.90
5429;DHT22;2737;52.386;9.980;2022-11-23T07:48:14;4.50;99.90
5429;DHT22;2737;52.386;9.980;2022-11-23T07:50:42;4.50;99.90
5429;DHT22;2737;52.386;9.980;2022-11-23T07:53:10;4.50;99.90
5429;DHT22;2737;52.386;9.980;2022-11-23T07:55:37;4.50;99.90
5429;DHT22;2737;52.386;9.980;2022-11-23T07:58:04;4.50;99.90
5429;DHT22;2737;52.386;9.980;2022-11-23T08:00:31;4.40;99.90
5429;DHT22;2737;52.386;9.980;2022-11-23T08:02:58;4.40;99.90
5429;DHT22;2737;52.386;9.980;2022-11-23T08:05:26;4.40;99.90
5429;DHT22;2737;52.386;9.980;2022-11-23T08:07:58;4.40;99.90
5429;DHT22;2737;52.386;9.980;2022-11-23T08:10:27;4.40;99.90
5429;DHT22;2737;52.386;9.980;2022-11-23T08:12:56;4.40;99.90
5429;DHT22;2737;52.386;9.980;2022-11-23T08:15:23;4.50;99.90
5429;DHT22;2737;52.386;9.980;2022-11-23T08:17:54;4.50;99.90
5429;DHT22;2737;52.386;9.980;2022-11-23T08:20:21;4.70;99.90
5429;DHT22;2737;52.386;9.980;2022-11-23T08:22:48;4.80;99.90
5429;DHT22;2737;52.386;9.980;2022-11-23T08:25:15;4.90;99.90
5429;DHT22;2737;52.386;9.980;2022-11-23T08:27:43;5.10;99.90
5429;DHT22;2737;52.386;9.980;2022-11-23T08:30:11;5.20;99.90
5429;DHT22;2737;52.386;9.980;2022-11-23T08:32:38;5.20;99.90
5429;DHT22;2737;52.386;9.980;2022-11-23T08:35:06;5.30;99.90
5429;DHT22;2737;52.386;9.980;2022-11-23T08:37:33;5.30;99.90
5429;DHT22;2737;52.386;9.980;2022-11-23T08:40:00;5.30;99.90
5429;DHT22;2737;52.386;9.980;2022-11-23T08:42:27;5.40;99.90
5429;DHT22;2737;52.386;9.980;2022-11-23T08:44:56;5.40;99.90
5429;DHT22;2737;52.386;9.980;2022-11-23T08:47:24;5.40;99.90
5429;DHT22;2737;52.386;9.980;2022-11-23T08:49:51;5.50;99.90
5429;DHT22;2737;52.386;9.980;2022-11-23T08:52:18;5.50;99.90
5429;DHT22;2737;52.386;9.980;2022-11-23T08:54:46;5.60;99.90
5429;DHT22;2737;52.386;9.980;2022-11-23T08:57:13;5.70;99.90
5429;DHT22;2737;52.386;9.980;2022-11-23T08:59:40;5.80;99.90
5429;DHT22;2737;52.386;9.980;2022-11-23T09:02:09;5.90;99.90
5429;DHT22;2737;52.386;9.980;2022-11-23T09:04:38;6.00;99.90
5429;DHT22;2737;52.386;9.980;2022-11-23T09:07:06;6.10;99.90
5429;DHT22;2737;52.386;9.980;2022-11-23T09:09:33;6.20;99.90
5429;DHT22;2737;52.386;9.980;2022-11-23T09:12:00;6.30;99.90
5429;DHT22;2737;52.386;9.980;2022-11-23T09:14:27;6.40;99.90
5429;DHT22;2737;52.386;9.980;2022-11-23T09:16:54;6.40;99.90
5429;DHT22;2737;52.386;9.980;2022-11-23T09:19:23;6.50;99.90
5429;DHT22;2737;52.386;9.980;2022-11-23T09:21:50;6.50;99.90
5429;DHT22;2737;52.386;9.980;2022-11-23T09:24:17;6.60;99.90
5429;DHT22;2737;52.386;9.980;2022-11-23T09:26:44;6.60;99.90
5429;DHT22;2737;52.386;9.980;2022-11-23T09:29:11;6.70;99.90
5429;DHT22;2737;52.386;9.980;2022-11-23T09:31:38;6.70;99.90
5429;DHT22;2737;52.386;9.980;2022-11-23T09:34:05;6.80;99.90
5429;DHT22;2737;52.386;9.980;2022-11-23T09:36:34;6.80;99.90
5429;DHT22;2737;52.386;9.980;2022-11-23T09:39:01;6.90;99.90
5429;DHT22;2737;52.386;9.980;2022-11-23T09:42:04;6.90;99.90
5429;DHT22;2737;52.386;9.980;2022-11-23T09:44:54;7.00;99.90
5429;DHT22;2737;52.386;9.980;2022-11-23T09:47:40;7.00;99.90
5429;DHT22;2737;52.386;9.980;2022-11-23T09:50:14;7.00;99.90
5429;DHT22;2737;52.386;9.980;2022-11-23T09:52:46;7.10;99.90
5429;DHT22;2737;52.386;9.980;2022-11-23T09:55:19;7.20;99.90
5429;DHT22;2737;52.386;9.980;2022-11-23T09:57:54;7.20;99.90
5429;DHT22;2737;52.386;9.980;2022-11-23T10:00:23;7.30;99.90
5429;DHT22;2737;52.386;9.980;2022-11-23T10:02:51;7.30;99.90
5429;DHT22;2737;52.386;9.980;2022-11-23T10:05:20;7.30;99.90
5429;DHT22;2737;52.386;9.980;2022-11-23T10:08:03;7.40;99.90
5429;DHT22;2737;52.386;9.980;2022-11-23T10:10:39;7.40;99.90
5429;DHT22;2737;52.386;9.980;2022-11-23T10:13:21;7.50;99.90
5429;DHT22;2737;52.386;9.980;2022-11-23T10:16:01;7.50;99.90
5429;DHT22;2737;52.386;9.980;2022-11-23T10:18:39;7.50;99.90
5429;DHT22;2737;52.386;9.980;2022-11-23T10:21:16;7.60;99.90
5429;DHT22;2737;52.386;9.980;2022-11-23T10:23:57;7.60;99.90
5429;DHT22;2737;52.386;9.980;2022-11-23T10:26:31;7.70;99.90
5429;DHT22;2737;52.386;9.980;2022-11-23T10:29:08;7.80;99.90
5429;DHT22;2737;52.386;9.980;2022-11-23T10:31:37;7.80;99.90
5429;DHT22;2737;52.386;9.980;2022-11-23T10:34:09;7.90;99.90
5429;DHT22;2737;52.386;9.980;2022-11-23T10:36:37;7.90;99.90
5429;DHT22;2737;52.386;9.980;2022-11-23T10:39:16;8.00;99.90
5429;DHT22;2737;52.386;9.980;2022-11-23T10:41:44;8.00;99.90
5429;DHT22;2737;52.386;9.980;2022-11-23T10:44:27;8.10;99.90
5429;DHT22;2737;52.386;9.980;2022-11-23T10:46:55;8.10;99.90
5429;DHT22;2737;52.386;9.980;2022-11-23T10:49:24;8.20;99.90
5429;DHT22;2737;52.386;9.980;2022-11-23T10:51:54;8.30;99.90
5429;DHT22;2737;52.386;9.980;2022-11-23T10:54:26;8.30;99.90
5429;DHT22;2737;52.386;9.980;2022-11-23T10:56:55;8.40;99.90
5429;DHT22;2737;52.386;9.980;2022-11-23T10:59:27;8.40;99.90
5429;DHT22;2737;52.386;9.980;2022-11-23T11:01:59;8.40;99.90
5429;DHT22;2737;52.386;9.980;2022-11-23T11:04:27;8.50;99.90
5429;DHT22;2737;52.386;9.980;2022-11-23T11:07:10;8.50;99.90
5429;DHT22;2737;52.386;9.980;2022-11-23T11:09:49;8.50;99.90
5429;DHT22;2737;52.386;9.980;2022-11-23T11:12:17;8.50;99.90
5429;DHT22;2737;52.386;9.980;2022-11-23T11:14:58;8.60;99.90
5429;DHT22;2737;52.386;9.980;2022-11-23T11:17:29;8.60;99.90
5429;DHT22;2737;52.386;9.980;2022-11-23T11:19:56;8.60;99.90
5429;DHT22;2737;52.386;9.980;2022-11-23T11:22:27;8.70;99.90
5429;DHT22;2737;52.386;9.980;2022-11-23T11:24:56;8.80;99.90
5429;DHT22;2737;52.386;9.980;2022-11-23T11:27:24;8.80;99.90
5429;DHT22;2737;52.386;9.980;2022-11-23T11:29:54;8.80;99.90
5429;DHT22;2737;52.386;9.980;2022-11-23T11:32:28;8.90;99.90
5429;DHT22;2737;52.386;9.980;2022-11-23T11:35:03;8.90;99.90
5429;DHT22;2737;52.386;9.980;2022-11-23T11:37:36;8.90;99.90
5429;DHT22;2737;52.386;9.980;2022-11-23T11:40:11;8.90;99.90
5429;DHT22;2737;52.386;9.980;2022-11-23T11:42:44;8.90;99.90
5429;DHT22;2737;52.386;9.980;2022-11-23T11:45:20;8.90;99.90
5429;DHT22;2737;52.386;9.980;2022-11-23T11:47:52;8.90;99.90
5429;DHT22;2737;52.386;9.980;2022-11-23T11:50:24;9.00;99.90
5429;DHT22;2737;52.386;9.980;2022-11-23T11:52:57;9.00;99.90
5429;DHT22;2737;52.386;9.980;2022-11-23T11:55:32;9.00;99.90
5429;DHT22;2737;52.386;9.980;2022-11-23T11:58:04;9.10;99.90
5429;DHT22;2737;52.386;9.980;2022-11-23T12:00:36;9.10;99.90
5429;DHT22;2737;52.386;9.980;2022-11-23T12:03:13;9.10;99.90
5429;DHT22;2737;52.386;9.980;2022-11-23T12:05:46;9.10;99.90
5429;DHT22;2737;52.386;9.980;2022-11-23T12:08:17;9.10;99.90
5429;DHT22;2737;52.386;9.980;2022-11-23T12:10:50;9.20;99.90
5429;DHT22;2737;52.386;9.980;2022-11-23T12:13:20;9.20;99.90
5429;DHT22;2737;52.386;9.980;2022-11-23T12:15:53;9.20;99.90
5429;DHT22;2737;52.386;9.980;2022-11-23T12:18:55;9.20;99.90
5429;DHT22;2737;52.386;9.980;2022-11-23T12:21:48;9.20;99.90
5429;DHT22;2737;52.386;9.980;2022-11-23T12:24:22;9.20;99.90
5429;DHT22;2737;52.386;9.980;2022-11-23T12:27:01;9.20;99.90
5429;DHT22;2737;52.386;9.980;2022-11-23T12:29:57;9.10;99.90
5429;DHT22;2737;52.386;9.980;2022-11-23T12:32:35;9.10;99.90
5429;DHT22;2737;52.386;9.980;2022-11-23T12:35:27;9.10;99.90
5429;DHT22;2737;52.386;9.980;2022-11-23T12:38:04;9.00;99.90
5429;DHT22;2737;52.386;9.980;2022-11-23T12:40:55;9.00;99.90
5429;DHT22;2737;52.386;9.980;2022-11-23T12:43:31;9.00;99.90
5429;DHT22;2737;52.386;9.980;2022-11-23T12:46:10;9.00;99.90
5429;DHT22;2737;52.386;9.980;2022-11-23T12:48:56;9.00;99.90
5429;DHT22;2737;52.386;9.980;2022-11-23T12:51:35;8.90;99.90
5429;DHT22;2737;52.386;9.980;2022-11-23T12:57:09;8.90;99.90
5429;DHT22;2737;52.386;9.980;2022-11-23T12:59:43;8.80;99.90
5429;DHT22;2737;52.386;9.980;2022-11-23T13:02:27;8.80;99.90
5429;DHT22;2737;52.386;9.980;2022-11-23T13:08:14;8.80;99.90
5429;DHT22;2737;52.386;9.980;2022-11-23T13:10:55;8.80;99.90
5429;DHT22;2737;52.386;9.980;2022-11-23T13:13:42;8.80;99.90
5429;DHT22;2737;52.386;9.980;2022-11-23T13:19:29;8.80;99.90
5429;DHT22;2737;52.386;9.980;2022-11-23T13:22:01;8.80;99.90
5429;DHT22;2737;52.386;9.980;2022-11-23T13:24:33;8.80;99.90
5429;DHT22;2737;52.386;9.980;2022-11-23T13:27:43;8.80;99.90
5429;DHT22;2737;52.386;9.980;2022-11-23T13:30:26;8.90;99.90
5429;DHT22;2737;52.386;9.980;2022-11-23T13:32:56;8.90;99.90
5429;DHT22;2737;52.386;9.980;2022-11-23T13:35:54;8.90;99.90
5429;DHT22;2737;52.386;9.980;2022-11-23T13:38:40;8.90;99.90
5429;DHT22;2737;52.386;9.980;2022-11-23T13:44:15;8.80;99.90
5429;DHT22;2737;52.386;9.980;2022-11-23T13:46:44;8.80;99.90
5429;DHT22;2737;52.386;9.980;2022-11-23T13:49:34;8.70;99.90
5429;DHT22;2737;52.386;9.980;2022-11-23T13:52:28;8.70;99.90
5429;DHT22;2737;52.386;9.980;2022-11-23T13:55:04;8.60;99.90
5429;DHT22;2737;52.386;9.980;2022-11-23T13:57:32;8.60;99.90
5429;DHT22;2737;52.386;9.980;2022-11-23T14:06:10;8.50;99.90
5429;DHT22;2737;52.386;9.980;2022-11-23T14:08:41;8.50;99.90
5429;DHT22;2737;52.386;9.980;2022-11-23T14:11:13;8.50;99.90
5429;DHT22;2737;52.386;9.980;2022-11-23T14:13:50;8.50;99.90
5429;DHT22;2737;52.386;9.980;2022-11-23T14:16:33;8.50;99.90
5429;DHT22;2737;52.386;9.980;2022-11-23T14:19:07;8.40;99.90
5429;DHT22;2737;52.386;9.980;2022-11-23T14:21:47;8.40;99.90
5429;DHT22;2737;52.386;9.980;2022-11-23T14:24:32;8.30;99.90
5429;DHT22;2737;52.386;9.980;2022-11-23T14:27:20;8.30;99.90
5429;DHT22;2737;52.386;9.980;2022-11-23T14:30:05;8.20;99.90
5429;DHT22;2737;52.386;9.980;2022-11-23T14:32:49;8.20;99.90
5429;DHT22;2737;52.386;9.980;2022-11-23T14:35:23;8.20;99.90
5429;DHT22;2737;52.386;9.980;2022-11-23T14:40:51;8.20;99.90
5429;DHT22;2737;52.386;9.980;2022-11-23T14:43:20;8.10;99.90
5429;DHT22;2737;52.386;9.980;2022-11-23T14:45:48;8.10;99.90
5429;DHT22;2737;52.386;9.980;2022-11-23T14:48:21;8.10;99.90
5429;DHT22;2737;52.386;9.980;2022-11-23T14:50:56;8.00;99.90
5429;DHT22;2737;52.386;9.980;2022-11-23T14:53:27;8.00;99.90
5429;DHT22;2737;52.386;9.980;2022-11-23T14:55:57;8.00;99.90
5429;DHT22;2737;52.386;9.980;2022-11-23T14:58:25;7.90;99.90
5429;DHT22;2737;52.386;9.980;2022-11-23T15:00:58;7.90;99.90
5429;DHT22;2737;52.386;9.980;2022-11-23T15:03:27;7.80;99.90
5429;DHT22;2737;52.386;9.980;2022-11-23T15:05:59;7.80;99.90
5429;DHT22;2737;52.386;9.980;2022-11-23T15:08:31;7.80;99.90
5429;DHT22;2737;52.386;9.980;2022-11-23T15:11:06;7.70;99.90
5429;DHT22;2737;52.386;9.980;2022-11-23T15:13:42;7.60;99.90
5429;DHT22;2737;52.386;9.980;2022-11-23T15:16:11;7.50;99.90
5429;DHT22;2737;52.386;9.980;2022-11-23T15:18:39;7.40;99.90
5429;DHT22;2737;52.386;9.980;2022-11-23T15:21:18;7.40;99.90
5429;DHT22;2737;52.386;9.980;2022-11-23T15:23:48;7.30;99.90
5429;DHT22;2737;52.386;9.980;2022-11-23T15:26:18;7.30;99.90
5429;DHT22;2737;52.386;9.980;2022-11-23T15:28:46;7.20;99.90
5429;DHT22;2737;52.386;9.980;2022-11-23T15:31:21;7.20;99.90
5429;DHT22;2737;52.386;9.980;2022-11-23T15:33:53;7.10;99.90
5429;DHT22;2737;52.386;9.980;2022-11-23T15:36:23;7.10;99.90
5429;DHT22;2737;52.386;9.980;2022-11-23T15:38:51;7.00;99.90
5429;DHT22;2737;52.386;9.980;2022-11-23T15:41:20;7.00;99.90
5429;DHT22;2737;52.386;9.980;2022-11-23T15:43:52;6.90;99.90
5429;DHT22;2737;52.386;9.980;2022-11-23T15:46:20;6.90;99.90
5429;DHT22;2737;52.386;9.980;2022-11-23T15:48:50;6.90;99.90
5429;DHT22;2737;52.386;9.980;2022-11-23T15:51:27;6.90;99.90
5429;DHT22;2737;52.386;9.980;2022-11-23T15:53:57;6.80;99.90
5429;DHT22;2737;52.386;9.980;2022-11-23T15:56:28;6.80;99.90
5429;DHT22;2737;52.386;9.980;2022-11-23T15:58:57;6.80;99.90
5429;DHT22;2737;52.386;9.980;2022-11-23T16:01:25;6.70;99.90
5429;DHT22;2737;52.386;9.980;2022-11-23T16:03:54;6.70;99.90
5429;DHT22;2737;52.386;9.980;2022-11-23T16:06:45;6.60;99.90
5429;DHT22;2737;52.386;9.980;2022-11-23T16:09:34;6.60;99.90
5429;DHT22;2737;52.386;9.980;2022-11-23T16:12:04;6.60;99.90
5429;DHT22;2737;52.386;9.980;2022-11-23T16:14:45;6.50;99.90
5429;DHT22;2737;52.386;9.980;2022-11-23T16:17:16;6.50;99.90
5429;DHT22;2737;52.386;9.980;2022-11-23T16:19:48;6.40;99.90
5429;DHT22;2737;52.386;9.980;2022-11-23T16:22:21;6.40;99.90
5429;DHT22;2737;52.386;9.980;2022-11-23T16:24:51;6.40;99.90
5429;DHT22;2737;52.386;9.980;2022-11-23T16:27:23;6.40;99.90
5429;DHT22;2737;52.386;9.980;2022-11-23T16:29:52;6.40;99.90
5429;DHT22;2737;52.386;9.980;2022-11-23T16:32:25;6.40;99.90
5429;DHT22;2737;52.386;9.980;2022-11-23T16:34:54;6.30;99.90
5429;DHT22;2737;52.386;9.980;2022-11-23T16:37:23;6.30;99.90
5429;DHT22;2737;52.386;9.980;2022-11-23T16:39:53;6.30;99.90
5429;DHT22;2737;52.386;9.980;2022-11-23T16:42:20;6.30;99.90
5429;DHT22;2737;52.386;9.980;2022-11-23T16:44:49;6.30;99.90
5429;DHT22;2737;52.386;9.980;2022-11-23T16:47:23;6.20;99.90
5429;DHT22;2737;52.386;9.980;2022-11-23T16:49:51;6.20;99.90
5429;DHT22;2737;52.386;9.980;2022-11-23T16:52:19;6.20;99.90
5429;DHT22;2737;52.386;9.980;2022-11-23T16:54:48;6.10;99.90
5429;DHT22;2737;52.386;9.980;2022-11-23T16:57:22;6.00;99.90
5429;DHT22;2737;52.386;9.980;2022-11-23T16:59:51;5.90;99.90
5429;DHT22;2737;52.386;9.980;2022-11-23T17:02:19;5.80;99.90